sensor_id;sensor_type;location;lat;lon;timestamp;temperature;humidity
14357;DHT22;7262;48.764;9.166;2023-07-20T00:01:02;20.30;99.90
14357;DHT22;7262;48.764;9.166;2023-07-20T00:03:29;20.20;99.90
14357;DHT22;7262;48.764;9.166;2023-07-20T00:05:56;20.20;99.90
14357;DHT22;7262;48.764;9.166;2023-07-20T00:08:23;20.10;99.90
14357;DHT22;7262;48.764;9.166;2023-07-20T00:10:50;20.10;99.90
14357;DHT22;7262;48.764;9.166;2023-07-20T00:13:18;20.00;99.90
14357;DHT22;7262;48.764;9.166;2023-07-20T00:15:46;20.00;99.90
14357;DHT22;7262;48.764;9.166;2023-07-20T00:18:13;19.90;99.90
14357;DHT22;7262;48.764;9.166;2023-07-20T00:20:40;19.80;99.90
14357;DHT22;7262;48.764;9.166;2023-07-20T00:23:07;19.80;99.90
14357;DHT22;7262;48.764;9.166;2023-07-20T00:25:34;19.70;99.90
14357;DHT22;7262;48.764;9.166;2023-07-20T00:28:00;19.70;99.90
14357;DHT22;7262;48.764;9.166;2023-07-20T00:30:29;19.70;99.90
14357;DHT22;7262;48.764;9.166;2023-07-20T00:32:55;19.60;99.90
14357;DHT22;7262;48.764;9.166;2023-07-20T00:35:22;19.60;99.90
14357;DHT22;7262;48.764;9.166;2023-07-20T00:37:49;19.60;99.90
14357;DHT22;7262;48.764;9.166;2023-07-20T00:40:16;19.50;99.90
14357;DHT22;7262;48.764;9.166;2023-07-20T00:42:44;19.50;99.90
14357;DHT22;7262;48.764;9.166;2023-07-20T00:45:11;19.40;99.90
14357;DHT22;7262;48.764;9.166;2023-07-20T00:47:39;19.40;99.90
14357;DHT22;7262;48.764;9.166;2023-07-20T00:50:08;19.30;99.90
14357;DHT22;7262;48.764;9.166;2023-07-20T00:52:35;19.30;99.90
14357;DHT22;7262;48.764;9.166;2023-07-20T00:55:04;19.30;99.90
14357;DHT22;7262;48.764;9.166;2023-07-20T00:57:31;19.20;99.90
14357;DHT22;7262;48.764;9.166;2023-07-20T00:59:59;19.20;99.90
14357;DHT22;7262;48.764;9.166;2023-07-20T01:02:30;19.20;99.90
14357;DHT22;7262;48.764;9.166;2023-07-20T01:05:00;19.10;99.90
14357;DHT22;7262;48.764;9.166;2023-07-20T01:07:28;19.10;99.90
14357;DHT22;7262;48.764;9.166;2023-07-20T01:09:59;19.00;99.90
14357;DHT22;7262;48.764;9.166;2023-07-20T01:12:30;18.90;99.90
14357;DHT22;7262;48.764;9.166;2023-07-20T01:14:59;18.80;99.90
14357;DHT22;7262;48.764;9.166;2023-07-20T01:17:26;18.80;99.90
14357;DHT22;7262;48.764;9.166;2023-07-20T01:19:53;18.80;99.90
14357;DHT22;7262;48.764;9.166;2023-07-20T01:22:26;18.70;99.90
14357;DHT22;7262;48.764;9.166;2023-07-20T01:25:04;18.70;99.90
14357;DHT22;7262;48.764;9.166;2023-07-20T01:27:36;18.60;99.90
14357;DHT22;7262;48.764;9.166;2023-07-20T01:30:18;18.50;99.90
14357;DHT22;7262;48.764;9.166;2023-07-20T01:32:49;18.40;99.90
14357;DHT22;7262;48.764;9.166;2023-07-20T01:35:18;18.40;99.90
14357;DHT22;7262;48.764;9.166;2023-07-20T01:37:46;18.30;99.90
14357;DHT22;7262;48.764;9.166;2023-07-20T01:40:15;18.30;99.90
14357;DHT22;7262;48.764;9.166;2023-07-20T01:42:43;18.20;99.90
14357;DHT22;7262;48.764;9.166;2023-07-20T01:45:10;18.10;99.90
14357;DHT22;7262;48.764;9.166;2023-07-20T01:47:37;18.10;99.90
14357;DHT22;7262;48.764;9.166;2023-07-20T01:50:07;18.00;99.90
14357;DHT22;7262;48.764;9.166;2023-07-20T01:52:34;17.90;99.90
14357;DHT22;7262;48.764;9.166;2023-07-20T01:55:01;17.90;99.90
14357;DHT22;7262;48.764;9.166;2023-07-20T01:57:29;17.90;99.90
14357;DHT22;7262;48.764;9.166;2023-07-20T01:59:56;17.80;99.90
14357;DHT22;7262;48.764;9.166;2023-07-20T02:02:25;17.70;99.90
14357;DHT22;7262;48.764;9.166;2023-07-20T02:04:52;17.70;99.90
14357;DHT22;7262;48.764;9.166;2023-07-20T02:07:21;17.60;99.90
14357;DHT22;7262;48.764;9.166;2023-07-20T02:09:47;17.60;99.90
14357;DHT22;7262;48.764;9.166;2023-07-20T02:12:15;17.50;99.90
14357;DHT22;7262;48.764;9.166;2023-07-20T02:14:44;17.50;99.90
14357;DHT22;7262;48.764;9.166;2023-07-20T02:17:10;17.50;99.90
14357;DHT22;7262;48.764;9.166;2023-07-20T02:19:37;17.40;99.90
14357;DHT22;7262;48.764;9.166;2023-07-20T02:22:04;17.50;99.90
14357;DHT22;7262;48.764;9.166;2023-07-20T02:24:33;17.50;99.90
14357;DHT22;7262;48.764;9.166;2023-07-20T02:27:00;17.40;99.90
14357;DHT22;7262;48.764;9.166;2023-07-20T02:29:27;17.40;99.90
14357;DHT22;7262;48.764;9.166;2023-07-20T02:31:54;17.40;99.90
14357;DHT22;7262;48.764;9.166;2023-07-20T02:34:20;17.30;99.90
14357;DHT22;7262;48.764;9.166;2023-07-20T02:36:47;17.30;99.90
14357;DHT22;7262;48.764;9.166;2023-07-20T02:39:14;17.30;99.90
14357;DHT22;7262;48.764;9.166;2023-07-20T02:41:42;17.30;99.90
14357;DHT22;7262;48.764;9.166;2023-07-20T02:44:09;17.20;99.90
14357;DHT22;7262;48.764;9.166;2023-07-20T02:46:36;17.30;99.90
14357;DHT22;7262;48.764;9.166;2023-07-20T02:49:03;17.20;99.90
14357;DHT22;7262;48.764;9.166;2023-07-20T02:51:29;17.10;99.90
14357;DHT22;7262;48.764;9.166;2023-07-20T02:53:56;17.00;99.90
14357;DHT22;7262;48.764;9.166;2023-07-20T02:56:23;17.00;99.90
14357;DHT22;7262;48.764;9.166;2023-07-20T02:58:51;17.00;99.90
14357;DHT22;7262;48.764;9.166;2023-07-20T03:01:18;17.00;99.90
14357;DHT22;7262;48.764;9.166;2023-07-20T03:03:45;17.00;99.90
14357;DHT22;7262;48.764;9.166;2023-07-20T03:06:15;17.00;99.90
14357;DHT22;7262;48.764;9.166;2023-07-20T03:08:42;17.00;99.90
14357;DHT22;7262;48.764;9.166;2023-07-20T03:11:12;16.90;99.90
14357;DHT22;7262;48.764;9.166;2023-07-20T03:13:40;16.80;99.90
14357;DHT22;7262;48.764;9.166;2023-07-20T03:16:08;16.80;99.90
14357;DHT22;7262;48.764;9.166;2023-07-20T03:18:36;16.80;99.90
14357;DHT22;7262;48.764;9.166;2023-07-20T03:21:03;16.70;99.90
14357;DHT22;7262;48.764;9.166;2023-07-20T03:23:30;16.80;99.90
14357;DHT22;7262;48.764;9.166;2023-07-20T03:25:57;16.90;99.90
14357;DHT22;7262;48.764;9.166;2023-07-20T03:28:24;16.90;99.90
14357;DHT22;7262;48.764;9.166;2023-07-20T03:30:55;17.00;99.90
14357;DHT22;7262;48.764;9.166;2023-07-20T03:33:24;17.00;99.90
14357;DHT22;7262;48.764;9.166;2023-07-20T03:35:51;17.00;99.90
14357;DHT22;7262;48.764;9.166;2023-07-20T03:38:19;17.00;99.90
14357;DHT22;7262;48.764;9.166;2023-07-20T03:40:49;17.00;99.90
14357;DHT22;7262;48.764;9.166;2023-07-20T03:43:17;17.00;99.90
14357;DHT22;7262;48.764;9.166;2023-07-20T03:45:44;16.90;99.90
14357;DHT22;7262;48.764;9.166;2023-07-20T03:48:15;17.00;99.90
14357;DHT22;7262;48.764;9.166;2023-07-20T03:50:43;16.90;99.90
14357;DHT22;7262;48.764;9.166;2023-07-20T03:53:10;16.90;99.90
14357;DHT22;7262;48.764;9.166;2023-07-20T03:55:37;17.00;99.90
14357;DHT22;7262;48.764;9.166;2023-07-20T03:58:05;17.10;99.90
14357;DHT22;7262;48.764;9.166;2023-07-20T04:00:32;17.10;99.90
14357;DHT22;7262;48.764;9.166;2023-07-20T04:02:59;17.10;99.90
14357;DHT22;7262;48.764;9.166;2023-07-20T04:05:28;17.20;99.90
14357;DHT22;7262;48.764;9.166;2023-07-20T04:07:56;17.30;99.90
14357;DHT22;7262;48.764;9.166;2023-07-20T04:10:23;17.40;99.90
14357;DHT22;7262;48.764;9.166;2023-07-20T04:12:49;17.40;99.90
14357;DHT22;7262;48.764;9.166;2023-07-20T04:15:16;17.40;99.90
14357;DHT22;7262;48.764;9.166;2023-07-20T04:17:44;17.40;99.90
14357;DHT22;7262;48.764;9.166;2023-07-20T04:20:11;17.50;99.90
14357;DHT22;7262;48.764;9.166;2023-07-20T04:22:38;17.60;99.90
14357;DHT22;7262;48.764;9.166;2023-07-20T04:25:06;17.70;99.90
14357;DHT22;7262;48.764;9.166;2023-07-20T04:27:33;17.80;99.90
14357;DHT22;7262;48.764;9.166;2023-07-20T04:30:02;17.80;99.90
14357;DHT22;7262;48.764;9.166;2023-07-20T04:32:29;17.80;99.90
14357;DHT22;7262;48.764;9.166;2023-07-20T04:34:59;17.80;99.90
14357;DHT22;7262;48.764;9.166;2023-07-20T04:37:25;17.70;99.90
14357;DHT22;7262;48.764;9.166;2023-07-20T04:39:53;17.70;99.90
14357;DHT22;7262;48.764;9.166;2023-07-20T04:42:21;17.90;99.90
14357;DHT22;7262;48.764;9.166;2023-07-20T04:44:48;18.00;99.90
14357;DHT22;7262;48.764;9.166;2023-07-20T04:47:17;18.20;99.90
14357;DHT22;7262;48.764;9.166;2023-07-20T04:49:44;18.30;99.90
14357;DHT22;7262;48.764;9.166;2023-07-20T04:52:11;18.40;99.90
14357;DHT22;7262;48.764;9.166;2023-07-20T04:54:38;18.50;99.90
14357;DHT22;7262;48.764;9.166;2023-07-20T04:57:09;18.40;99.90
14357;DHT22;7262;48.764;9.166;2023-07-20T04:59:40;18.50;99.90
14357;DHT22;7262;48.764;9.166;2023-07-20T05:02:07;18.60;99.90
14357;DHT22;7262;48.764;9.166;2023-07-20T05:04:34;18.90;99.90
14357;DHT22;7262;48.764;9.166;2023-07-20T05:07:00;19.10;99.90
14357;DHT22;7262;48.764;9.166;2023-07-20T05:09:28;19.30;99.90
14357;DHT22;7262;48.764;9.166;2023-07-20T05:11:55;19.40;99.90
14357;DHT22;7262;48.764;9.166;2023-07-20T05:14:21;19.40;99.90
14357;DHT22;7262;48.764;9.166;2023-07-20T05:16:52;19.50;99.90
14357;DHT22;7262;48.764;9.166;2023-07-20T05:19:21;19.60;99.90
14357;DHT22;7262;48.764;9.166;2023-07-20T05:21:50;19.60;99.90
14357;DHT22;7262;48.764;9.166;2023-07-20T05:24:17;19.80;99.90
14357;DHT22;7262;48.764;9.166;2023-07-20T05:26:43;19.60;99.90
14357;DHT22;7262;48.764;9.166;2023-07-20T05:29:11;19.70;99.90
14357;DHT22;7262;48.764;9.166;2023-07-20T05:31:38;19.80;99.90
14357;DHT22;7262;48.764;9.166;2023-07-20T05:34:06;20.10;99.90
14357;DHT22;7262;48.764;9.166;2023-07-20T05:36:35;20.20;99.90
14357;DHT22;7262;48.764;9.166;2023-07-20T05:39:03;20.30;99.90
14357;DHT22;7262;48.764;9.166;2023-07-20T05:41:32;20.50;99.90
14357;DHT22;7262;48.764;9.166;2023-07-20T05:43:59;20.70;99.90
14357;DHT22;7262;48.764;9.166;2023-07-20T05:46:26;21.10;99.90
14357;DHT22;7262;48.764;9.166;2023-07-20T05:48:53;21.50;99.90
14357;DHT22;7262;48.764;9.166;2023-07-20T05:51:21;21.60;99.90
14357;DHT22;7262;48.764;9.166;2023-07-20T05:53:48;21.80;99.90
14357;DHT22;7262;48.764;9.166;2023-07-20T05:56:15;22.00;99.90
14357;DHT22;7262;48.764;9.166;2023-07-20T05:58:42;21.90;99.90
14357;DHT22;7262;48.764;9.166;2023-07-20T06:01:08;22.00;99.90
14357;DHT22;7262;48.764;9.166;2023-07-20T06:03:36;21.80;99.90
14357;DHT22;7262;48.764;9.166;2023-07-20T06:06:03;21.70;99.90
14357;DHT22;7262;48.764;9.166;2023-07-20T06:08:36;21.60;99.90
14357;DHT22;7262;48.764;9.166;2023-07-20T06:11:03;21.70;99.90
14357;DHT22;7262;48.764;9.166;2023-07-20T06:13:29;21.90;99.90
14357;DHT22;7262;48.764;9.166;2023-07-20T06:15:56;22.30;99.90
14357;DHT22;7262;48.764;9.166;2023-07-20T06:18:23;22.50;99.90
14357;DHT22;7262;48.764;9.166;2023-07-20T06:20:50;23.10;99.90
14357;DHT22;7262;48.764;9.166;2023-07-20T06:23:18;23.40;99.90
14357;DHT22;7262;48.764;9.166;2023-07-20T06:25:47;23.10;99.90
14357;DHT22;7262;48.764;9.166;2023-07-20T06:28:14;23.10;99.90
14357;DHT22;7262;48.764;9.166;2023-07-20T06:30:41;23.10;99.90
14357;DHT22;7262;48.764;9.166;2023-07-20T06:33:07;23.10;99.90
14357;DHT22;7262;48.764;9.166;2023-07-20T06:35:34;23.60;99.90
14357;DHT22;7262;48.764;9.166;2023-07-20T06:38:02;24.50;99.90
14357;DHT22;7262;48.764;9.166;2023-07-20T06:40:29;25.10;99.90
14357;DHT22;7262;48.764;9.166;2023-07-20T06:42:57;25.00;99.90
14357;DHT22;7262;48.764;9.166;2023-07-20T06:45:24;24.80;99.90
14357;DHT22;7262;48.764;9.166;2023-07-20T06:47:51;24.60;99.90
14357;DHT22;7262;48.764;9.166;2023-07-20T06:50:18;24.90;99.90
14357;DHT22;7262;48.764;9.166;2023-07-20T06:52:45;25.50;99.90
14357;DHT22;7262;48.764;9.166;2023-07-20T06:55:13;26.10;99.90
14357;DHT22;7262;48.764;9.166;2023-07-20T06:57:41;27.20;99.90
14357;DHT22;7262;48.764;9.166;2023-07-20T07:00:10;28.20;99.90
14357;DHT22;7262;48.764;9.166;2023-07-20T07:02:37;29.00;99.90
14357;DHT22;7262;48.764;9.166;2023-07-20T07:05:07;29.50;99.90
14357;DHT22;7262;48.764;9.166;2023-07-20T07:07:35;28.80;99.90
14357;DHT22;7262;48.764;9.166;2023-07-20T07:10:02;28.80;99.90
14357;DHT22;7262;48.764;9.166;2023-07-20T07:12:30;28.60;99.90
14357;DHT22;7262;48.764;9.166;2023-07-20T07:14:57;28.40;99.90
14357;DHT22;7262;48.764;9.166;2023-07-20T07:17:26;28.80;99.90
14357;DHT22;7262;48.764;9.166;2023-07-20T07:19:53;29.10;99.90
14357;DHT22;7262;48.764;9.166;2023-07-20T07:22:21;29.90;99.90
14357;DHT22;7262;48.764;9.166;2023-07-20T07:24:48;29.90;99.90
14357;DHT22;7262;48.764;9.166;2023-07-20T07:27:15;30.00;99.90
14357;DHT22;7262;48.764;9.166;2023-07-20T07:29:42;29.40;99.90
14357;DHT22;7262;48.764;9.166;2023-07-20T07:32:10;29.50;99.90
14357;DHT22;7262;48.764;9.166;2023-07-20T07:34:39;29.90;99.90
14357;DHT22;7262;48.764;9.166;2023-07-20T07:37:06;30.70;99.70
14357;DHT22;7262;48.764;9.166;2023-07-20T07:39:32;31.10;98.40
14357;DHT22;7262;48.764;9.166;2023-07-20T07:41:59;31.90;97.00
14357;DHT22;7262;48.764;9.166;2023-07-20T07:44:26;31.50;96.50
14357;DHT22;7262;48.764;9.166;2023-07-20T07:46:53;30.60;97.00
14357;DHT22;7262;48.764;9.166;2023-07-20T07:49:20;30.20;97.80
14357;DHT22;7262;48.764;9.166;2023-07-20T07:51:49;29.40;98.70
14357;DHT22;7262;48.764;9.166;2023-07-20T07:54:16;29.70;98.50
14357;DHT22;7262;48.764;9.166;2023-07-20T07:56:42;29.50;98.90
14357;DHT22;7262;48.764;9.166;2023-07-20T07:59:10;30.10;98.00
14357;DHT22;7262;48.764;9.166;2023-07-20T08:01:36;30.10;97.60
14357;DHT22;7262;48.764;9.166;2023-07-20T08:04:03;29.90;98.30
14357;DHT22;7262;48.764;9.166;2023-07-20T08:06:30;30.80;96.70
14357;DHT22;7262;48.764;9.166;2023-07-20T08:08:59;31.30;95.40
14357;DHT22;7262;48.764;9.166;2023-07-20T08:11:27;31.80;94.60
14357;DHT22;7262;48.764;9.166;2023-07-20T08:13:56;31.90;94.00
14357;DHT22;7262;48.764;9.166;2023-07-20T08:16:25;31.60;94.00
14357;DHT22;7262;48.764;9.166;2023-07-20T08:18:52;31.30;94.10
14357;DHT22;7262;48.764;9.166;2023-07-20T08:21:19;30.70;94.70
14357;DHT22;7262;48.764;9.166;2023-07-20T08:23:46;30.40;94.40
14357;DHT22;7262;48.764;9.166;2023-07-20T08:26:14;29.10;96.20
14357;DHT22;7262;48.764;9.166;2023-07-20T08:28:41;28.80;96.10
14357;DHT22;7262;48.764;9.166;2023-07-20T08:31:09;28.10;96.20
14357;DHT22;7262;48.764;9.166;2023-07-20T08:33:35;26.70;98.30
14357;DHT22;7262;48.764;9.166;2023-07-20T08:36:02;26.50;99.30
14357;DHT22;7262;48.764;9.166;2023-07-20T08:38:31;26.40;99.80
14357;DHT22;7262;48.764;9.166;2023-07-20T08:40:57;27.30;98.60
14357;DHT22;7262;48.764;9.166;2023-07-20T08:43:26;28.20;98.10
14357;DHT22;7262;48.764;9.166;2023-07-20T08:45:54;29.30;96.10
14357;DHT22;7262;48.764;9.166;2023-07-20T08:48:21;28.70;96.40
14357;DHT22;7262;48.764;9.166;2023-07-20T08:50:48;27.80;97.00
14357;DHT22;7262;48.764;9.166;2023-07-20T08:53:16;26.80;98.50
14357;DHT22;7262;48.764;9.166;2023-07-20T08:55:43;25.50;99.90
14357;DHT22;7262;48.764;9.166;2023-07-20T08:58:11;24.80;99.90
14357;DHT22;7262;48.764;9.166;2023-07-20T09:00:41;24.70;99.90
14357;DHT22;7262;48.764;9.166;2023-07-20T09:03:08;25.20;99.90
14357;DHT22;7262;48.764;9.166;2023-07-20T09:05:35;26.90;99.90
14357;DHT22;7262;48.764;9.166;2023-07-20T09:08:02;28.20;97.80
14357;DHT22;7262;48.764;9.166;2023-07-20T09:10:29;28.90;96.50
14357;DHT22;7262;48.764;9.166;2023-07-20T09:12:56;29.40;95.40
14357;DHT22;7262;48.764;9.166;2023-07-20T09:15:23;29.60;94.20
14357;DHT22;7262;48.764;9.166;2023-07-20T09:17:51;29.80;94.30
14357;DHT22;7262;48.764;9.166;2023-07-20T09:20:19;29.90;93.90
14357;DHT22;7262;48.764;9.166;2023-07-20T09:22:47;30.70;93.10
14357;DHT22;7262;48.764;9.166;2023-07-20T09:25:15;31.40;91.50
14357;DHT22;7262;48.764;9.166;2023-07-20T09:27:43;31.30;91.50
14357;DHT22;7262;48.764;9.166;2023-07-20T09:30:13;31.40;90.90
14357;DHT22;7262;48.764;9.166;2023-07-20T09:32:41;32.40;90.60
14357;DHT22;7262;48.764;9.166;2023-07-20T09:35:13;32.60;89.30
14357;DHT22;7262;48.764;9.166;2023-07-20T09:37:45;32.30;89.70
14357;DHT22;7262;48.764;9.166;2023-07-20T09:40:14;31.80;90.20
14357;DHT22;7262;48.764;9.166;2023-07-20T09:42:41;32.60;89.70
14357;DHT22;7262;48.764;9.166;2023-07-20T09:45:09;32.60;88.60
14357;DHT22;7262;48.764;9.166;2023-07-20T09:47:38;31.20;88.70
14357;DHT22;7262;48.764;9.166;2023-07-20T09:50:05;30.40;90.20
14357;DHT22;7262;48.764;9.166;2023-07-20T09:52:40;29.80;90.20
14357;DHT22;7262;48.764;9.166;2023-07-20T09:55:09;30.50;89.80
14357;DHT22;7262;48.764;9.166;2023-07-20T09:57:37;31.20;88.90
14357;DHT22;7262;48.764;9.166;2023-07-20T10:00:05;31.00;89.90
14357;DHT22;7262;48.764;9.166;2023-07-20T10:02:40;31.10;89.70
14357;DHT22;7262;48.764;9.166;2023-07-20T10:05:08;31.30;88.10
14357;DHT22;7262;48.764;9.166;2023-07-20T10:07:35;31.10;86.80
14357;DHT22;7262;48.764;9.166;2023-07-20T10:10:05;29.70;89.70
14357;DHT22;7262;48.764;9.166;2023-07-20T10:12:33;28.60;91.10
14357;DHT22;7262;48.764;9.166;2023-07-20T10:15:11;27.90;91.80
14357;DHT22;7262;48.764;9.166;2023-07-20T10:17:40;27.50;92.90
14357;DHT22;7262;48.764;9.166;2023-07-20T10:20:10;27.30;92.60
14357;DHT22;7262;48.764;9.166;2023-07-20T10:22:38;26.90;93.20
14357;DHT22;7262;48.764;9.166;2023-07-20T10:25:07;27.00;93.40
14357;DHT22;7262;48.764;9.166;2023-07-20T10:27:34;26.90;93.60
14357;DHT22;7262;48.764;9.166;2023-07-20T10:30:00;27.30;93.00
14357;DHT22;7262;48.764;9.166;2023-07-20T10:32:28;27.90;92.60
14357;DHT22;7262;48.764;9.166;2023-07-20T10:34:56;28.70;91.80
14357;DHT22;7262;48.764;9.166;2023-07-20T10:42:51;30.10;89.00
14357;DHT22;7262;48.764;9.166;2023-07-20T10:45:29;29.80;88.10
14357;DHT22;7262;48.764;9.166;2023-07-20T10:47:59;29.20;88.70
14357;DHT22;7262;48.764;9.166;2023-07-20T10:50:29;28.30;90.40
14357;DHT22;7262;48.764;9.166;2023-07-20T10:53:03;28.00;91.10
14357;DHT22;7262;48.764;9.166;2023-07-20T10:55:31;27.40;91.50
14357;DHT22;7262;48.764;9.166;2023-07-20T10:58:12;27.40;91.70
14357;DHT22;7262;48.764;9.166;2023-07-20T11:00:59;27.60;91.40
14357;DHT22;7262;48.764;9.166;2023-07-20T11:03:27;28.20;90.70
14357;DHT22;7262;48.764;9.166;2023-07-20T11:05:54;28.70;89.20
14357;DHT22;7262;48.764;9.166;2023-07-20T11:11:21;29.70;87.20
14357;DHT22;7262;48.764;9.166;2023-07-20T11:13:56;29.60;85.40
14357;DHT22;7262;48.764;9.166;2023-07-20T11:16:36;29.70;84.70
14357;DHT22;7262;48.764;9.166;2023-07-20T11:19:04;29.90;85.40
14357;DHT22;7262;48.764;9.166;2023-07-20T11:21:35;28.70;86.00
14357;DHT22;7262;48.764;9.166;2023-07-20T11:24:06;28.30;86.80
14357;DHT22;7262;48.764;9.166;2023-07-20T11:26:41;28.90;85.60
14357;DHT22;7262;48.764;9.166;2023-07-20T11:29:09;28.90;84.90
14357;DHT22;7262;48.764;9.166;2023-07-20T11:31:37;28.90;85.00
14357;DHT22;7262;48.764;9.166;2023-07-20T11:34:04;29.20;85.70
14357;DHT22;7262;48.764;9.166;2023-07-20T11:36:31;29.80;83.50
14357;DHT22;7262;48.764;9.166;2023-07-20T11:38:58;29.10;83.80
14357;DHT22;7262;48.764;9.166;2023-07-20T11:41:25;28.70;85.00
14357;DHT22;7262;48.764;9.166;2023-07-20T11:43:53;27.90;86.60
14357;DHT22;7262;48.764;9.166;2023-07-20T11:46:22;27.50;88.50
14357;DHT22;7262;48.764;9.166;2023-07-20T11:48:49;27.60;88.30
14357;DHT22;7262;48.764;9.166;2023-07-20T11:51:22;27.30;88.10
14357;DHT22;7262;48.764;9.166;2023-07-20T11:53:49;27.50;88.00
14357;DHT22;7262;48.764;9.166;2023-07-20T11:56:16;28.20;86.90
14357;DHT22;7262;48.764;9.166;2023-07-20T11:58:43;29.40;85.40
14357;DHT22;7262;48.764;9.166;2023-07-20T12:01:13;29.00;84.80
14357;DHT22;7262;48.764;9.166;2023-07-20T12:03:42;28.80;84.50
14357;DHT22;7262;48.764;9.166;2023-07-20T12:06:10;29.80;83.80
14357;DHT22;7262;48.764;9.166;2023-07-20T12:08:38;30.50;81.00
14357;DHT22;7262;48.764;9.166;2023-07-20T12:11:05;30.90;80.00
14357;DHT22;7262;48.764;9.166;2023-07-20T12:13:35;31.40;79.30
14357;DHT22;7262;48.764;9.166;2023-07-20T12:16:09;32.50;76.90
14357;DHT22;7262;48.764;9.166;2023-07-20T12:18:37;33.20;74.50
14357;DHT22;7262;48.764;9.166;2023-07-20T12:21:05;32.50;74.80
14357;DHT22;7262;48.764;9.166;2023-07-20T12:23:35;31.00;76.10
14357;DHT22;7262;48.764;9.166;2023-07-20T12:26:05;29.70;78.80
14357;DHT22;7262;48.764;9.166;2023-07-20T12:28:32;29.00;79.10
14357;DHT22;7262;48.764;9.166;2023-07-20T12:31:00;29.90;78.80
14357;DHT22;7262;48.764;9.166;2023-07-20T12:33:28;30.80;78.30
14357;DHT22;7262;48.764;9.166;2023-07-20T12:35:54;31.20;78.20
14357;DHT22;7262;48.764;9.166;2023-07-20T12:38:25;32.30;76.20
14357;DHT22;7262;48.764;9.166;2023-07-20T12:40:52;32.80;76.20
14357;DHT22;7262;48.764;9.166;2023-07-20T12:43:20;32.90;75.40
14357;DHT22;7262;48.764;9.166;2023-07-20T12:45:47;32.20;76.00
14357;DHT22;7262;48.764;9.166;2023-07-20T12:48:14;31.40;76.50
14357;DHT22;7262;48.764;9.166;2023-07-20T12:50:41;31.50;76.40
14357;DHT22;7262;48.764;9.166;2023-07-20T12:53:07;32.20;74.80
14357;DHT22;7262;48.764;9.166;2023-07-20T12:55:36;31.30;76.40
14357;DHT22;7262;48.764;9.166;2023-07-20T12:58:02;30.80;77.80
14357;DHT22;7262;48.764;9.166;2023-07-20T13:00:29;29.50;78.30
14357;DHT22;7262;48.764;9.166;2023-07-20T13:02:56;28.20;79.60
14357;DHT22;7262;48.764;9.166;2023-07-20T13:05:23;28.90;79.60
14357;DHT22;7262;48.764;9.166;2023-07-20T13:07:50;30.50;76.80
14357;DHT22;7262;48.764;9.166;2023-07-20T13:10:17;30.70;76.70
14357;DHT22;7262;48.764;9.166;2023-07-20T13:12:45;30.60;76.10
14357;DHT22;7262;48.764;9.166;2023-07-20T13:15:12;31.20;76.70
14357;DHT22;7262;48.764;9.166;2023-07-20T13:17:39;32.00;74.80
14357;DHT22;7262;48.764;9.166;2023-07-20T13:20:07;33.20;73.60
14357;DHT22;7262;48.764;9.166;2023-07-20T13:22:35;34.10;72.20
14357;DHT22;7262;48.764;9.166;2023-07-20T13:25:02;33.30;71.60
14357;DHT22;7262;48.764;9.166;2023-07-20T13:27:29;32.20;71.80
14357;DHT22;7262;48.764;9.166;2023-07-20T13:29:58;32.20;72.70
14357;DHT22;7262;48.764;9.166;2023-07-20T13:32:25;32.00;71.60
14357;DHT22;7262;48.764;9.166;2023-07-20T13:34:53;31.50;71.80
14357;DHT22;7262;48.764;9.166;2023-07-20T13:37:20;30.70;73.00
14357;DHT22;7262;48.764;9.166;2023-07-20T13:39:47;30.10;74.20
14357;DHT22;7262;48.764;9.166;2023-07-20T13:42:14;30.20;74.30
14357;DHT22;7262;48.764;9.166;2023-07-20T13:44:41;30.80;72.90
14357;DHT22;7262;48.764;9.166;2023-07-20T13:47:11;30.60;73.80
14357;DHT22;7262;48.764;9.166;2023-07-20T13:49:39;30.90;72.40
14357;DHT22;7262;48.764;9.166;2023-07-20T13:52:07;31.30;71.90
14357;DHT22;7262;48.764;9.166;2023-07-20T13:54:34;31.20;72.10
14357;DHT22;7262;48.764;9.166;2023-07-20T13:57:01;31.20;72.30
14357;DHT22;7262;48.764;9.166;2023-07-20T13:59:28;31.30;72.50
14357;DHT22;7262;48.764;9.166;2023-07-20T14:01:54;31.60;71.80
14357;DHT22;7262;48.764;9.166;2023-07-20T14:04:23;32.30;72.80
14357;DHT22;7262;48.764;9.166;2023-07-20T14:06:50;32.50;70.90
14357;DHT22;7262;48.764;9.166;2023-07-20T14:09:16;33.10;69.10
14357;DHT22;7262;48.764;9.166;2023-07-20T14:11:43;32.90;69.50
14357;DHT22;7262;48.764;9.166;2023-07-20T14:14:10;32.80;69.00
14357;DHT22;7262;48.764;9.166;2023-07-20T14:16:37;32.40;69.60
14357;DHT22;7262;48.764;9.166;2023-07-20T14:19:04;32.70;69.20
14357;DHT22;7262;48.764;9.166;2023-07-20T14:21:35;32.50;68.40
14357;DHT22;7262;48.764;9.166;2023-07-20T14:24:02;33.00;67.80
14357;DHT22;7262;48.764;9.166;2023-07-20T14:26:29;32.50;68.30
14357;DHT22;7262;48.764;9.166;2023-07-20T14:28:56;32.30;68.10
14357;DHT22;7262;48.764;9.166;2023-07-20T14:31:26;32.50;68.50
14357;DHT22;7262;48.764;9.166;2023-07-20T14:33:53;32.80;68.40
14357;DHT22;7262;48.764;9.166;2023-07-20T14:36:21;32.90;67.90
14357;DHT22;7262;48.764;9.166;2023-07-20T14:38:49;32.60;68.20
14357;DHT22;7262;48.764;9.166;2023-07-20T14:41:16;32.50;68.20
14357;DHT22;7262;48.764;9.166;2023-07-20T14:43:52;32.10;68.60
14357;DHT22;7262;48.764;9.166;2023-07-20T14:46:34;30.70;69.80
14357;DHT22;7262;48.764;9.166;2023-07-20T14:49:00;30.00;70.80
14357;DHT22;7262;48.764;9.166;2023-07-20T14:51:28;29.60;71.90
14357;DHT22;7262;48.764;9.166;2023-07-20T14:53:58;29.40;72.40
14357;DHT22;7262;48.764;9.166;2023-07-20T14:56:25;29.30;73.00
14357;DHT22;7262;48.764;9.166;2023-07-20T14:58:52;29.10;73.50
14357;DHT22;7262;48.764;9.166;2023-07-20T15:01:19;28.90;73.60
14357;DHT22;7262;48.764;9.166;2023-07-20T15:03:46;28.90;73.00
14357;DHT22;7262;48.764;9.166;2023-07-20T15:06:15;28.70;73.20
14357;DHT22;7262;48.764;9.166;2023-07-20T15:08:42;28.70;72.50
14357;DHT22;7262;48.764;9.166;2023-07-20T15:11:11;28.30;73.80
14357;DHT22;7262;48.764;9.166;2023-07-20T15:13:37;27.90;74.50
14357;DHT22;7262;48.764;9.166;2023-07-20T15:16:07;28.00;74.50
14357;DHT22;7262;48.764;9.166;2023-07-20T15:18:35;28.10;74.50
14357;DHT22;7262;48.764;9.166;2023-07-20T15:21:02;28.00;73.50
14357;DHT22;7262;48.764;9.166;2023-07-20T15:23:29;27.70;74.90
14357;DHT22;7262;48.764;9.166;2023-07-20T15:25:56;27.50;76.30
14357;DHT22;7262;48.764;9.166;2023-07-20T15:28:24;27.60;75.40
14357;DHT22;7262;48.764;9.166;2023-07-20T15:30:57;27.70;75.00
14357;DHT22;7262;48.764;9.166;2023-07-20T15:33:33;27.50;75.30
14357;DHT22;7262;48.764;9.166;2023-07-20T15:36:00;27.70;75.20
14357;DHT22;7262;48.764;9.166;2023-07-20T15:38:27;27.90;76.60
14357;DHT22;7262;48.764;9.166;2023-07-20T15:40:53;27.80;74.40
14357;DHT22;7262;48.764;9.166;2023-07-20T15:43:20;27.90;74.00
14357;DHT22;7262;48.764;9.166;2023-07-20T15:46:00;27.60;75.00
14357;DHT22;7262;48.764;9.166;2023-07-20T15:48:27;27.30;75.80
14357;DHT22;7262;48.764;9.166;2023-07-20T15:51:07;27.30;75.90
14357;DHT22;7262;48.764;9.166;2023-07-20T15:53:34;27.40;75.70
14357;DHT22;7262;48.764;9.166;2023-07-20T15:56:01;27.30;76.30
14357;DHT22;7262;48.764;9.166;2023-07-20T15:58:28;27.50;76.30